Time;durP1;ratioP1;P1;durP2;ratioP2;P2;SDS_P1;SDS_P2;PMS_P1;PMS_P2;Temp;Humidity;BMP_temperature;BMP_pressure;BME280_temperature;BME280_humidity;BME280_pressure;Samples;Min_cycle;Max_cycle;Signal;HPM_P1;HPM_P2
2023/08/11 00:00:24;;;;;;;2.88;1.50;;;;;;;24.11;39.15;99002.50;5014973;28;20501;-74
2023/08/11 00:02:50;;;;;;;2.85;1.60;;;;;;;24.14;39.13;99005.56;5015272;28;20144;-73
2023/08/11 00:05:17;;;;;;;2.63;1.17;;;;;;;24.11;39.16;98997.16;5031581;28;20041;-73
2023/08/11 00:07:44;;;;;;;2.88;1.60;;;;;;;24.10;39.35;99003.50;4998136;28;20041;-73
2023/08/11 00:10:12;;;;;;;1.90;1.40;;;;;;;24.14;39.58;99010.09;5031202;28;20057;-73
2023/08/11 00:12:38;;;;;;;3.70;1.48;;;;;;;24.13;39.67;99011.94;5015526;28;20029;-73
2023/08/11 00:15:04;;;;;;;4.88;1.92;;;;;;;24.06;39.88;99002.28;5014717;28;20033;-73
2023/08/11 00:17:30;;;;;;;2.60;1.90;;;;;;;24.05;40.11;98997.94;5014628;28;20021;-73
2023/08/11 00:19:55;;;;;;;4.70;1.92;;;;;;;24.08;39.92;99003.69;5014706;28;20040;-73
2023/08/11 00:22:21;;;;;;;2.30;1.60;;;;;;;24.03;40.14;99003.47;5032434;28;20068;-73
2023/08/11 00:24:46;;;;;;;2.47;1.60;;;;;;;23.96;40.17;98995.44;4998311;28;20092;-73
2023/08/11 00:27:12;;;;;;;2.35;1.50;;;;;;;23.94;40.37;99002.84;4997708;28;20469;-74
2023/08/11 00:29:37;;;;;;;2.67;1.70;;;;;;;23.92;40.16;99006.72;5013885;28;20042;-74
2023/08/11 00:32:03;;;;;;;3.03;2.00;;;;;;;23.89;40.45;98999.09;4998507;28;20105;-74
2023/08/11 00:34:29;;;;;;;3.95;1.40;;;;;;;23.89;40.47;98999.09;5014876;28;20039;-74
2023/08/11 00:36:55;;;;;;;2.08;1.45;;;;;;;23.88;40.44;98997.44;5014676;28;20604;-74
2023/08/11 00:39:21;;;;;;;2.20;1.80;;;;;;;23.86;40.28;98999.50;4998030;28;20066;-74
2023/08/11 00:41:46;;;;;;;3.05;2.00;;;;;;;23.79;40.39;98994.09;5031944;28;20091;-74
2023/08/11 00:44:12;;;;;;;2.70;1.60;;;;;;;23.78;40.50;98995.94;4998527;28;20037;-73
2023/08/11 00:46:39;;;;;;;2.88;1.70;;;;;;;23.74;40.42;98997.34;5030508;28;20067;-73
2023/08/11 00:49:04;;;;;;;2.30;1.60;;;;;;;23.70;40.22;98998.75;4998489;28;20045;-74
2023/08/11 00:51:30;;;;;;;2.78;1.80;;;;;;;23.69;40.51;98996.28;4997865;28;20048;-73
2023/08/11 00:53:55;;;;;;;4.63;1.90;;;;;;;23.64;40.66;99003.03;5014499;28;20500;-73
2023/08/11 00:56:21;;;;;;;2.42;1.60;;;;;;;23.62;40.57;99007.72;4997619;28;20046;-73
2023/08/11 00:58:47;;;;;;;2.38;1.33;;;;;;;23.58;40.67;99003.81;4998262;28;20043;-73
2023/08/11 01:01:13;;;;;;;4.03;1.33;;;;;;;23.54;40.56;98999.88;5008554;28;20128;-73
2023/08/11 01:03:40;;;;;;;2.38;1.58;;;;;;;23.50;40.62;99001.31;5051147;28;20496;-73
2023/08/11 01:06:28;;;;;;;2.70;1.58;;;;;;;23.47;40.88;99002.50;5050868;28;20036;-73
2023/08/11 01:09:12;;;;;;;2.80;1.58;;;;;;;23.43;41.04;98989.75;5051066;28;20472;-73
2023/08/11 01:11:40;;;;;;;2.15;1.60;;;;;;;23.40;41.04;98995.47;5055421;28;20040;-73
2023/08/11 01:14:18;;;;;;;2.95;1.67;;;;;;;23.38;40.97;99000.19;5054867;28;20631;-73
2023/08/11 01:16:48;;;;;;;2.63;1.75;;;;;;;23.30;41.12;98991.31;5021677;28;20491;-73
2023/08/11 01:19:21;;;;;;;2.10;1.60;;;;;;;23.31;41.15;98994.81;5055179;28;20033;-73
2023/08/11 01:21:46;;;;;;;2.28;1.60;;;;;;;23.30;41.36;98996.63;5038249;28;20048;-73
2023/08/11 01:24:12;;;;;;;3.33;1.90;;;;;;;23.26;41.37;99002.53;5021666;28;20033;-74
2023/08/11 01:26:37;;;;;;;3.40;1.80;;;;;;;23.20;41.45;98996.16;5038235;28;20041;-74
2023/08/11 01:29:05;;;;;;;5.30;1.60;;;;;;;23.19;41.18;99001.69;5037402;28;20491;-74
2023/08/11 01:31:31;;;;;;;1.98;1.40;;;;;;;23.13;41.30;98997.94;5021360;28;20139;-74
2023/08/11 01:33:57;;;;;;;2.53;1.52;;;;;;;23.13;41.49;99005.91;5038319;28;20041;-74
2023/08/11 01:36:22;;;;;;;1.90;1.40;;;;;;;23.02;41.61;98996.56;5037647;28;20179;-74
2023/08/11 01:38:48;;;;;;;2.65;1.75;;;;;;;23.04;41.55;98991.06;5021409;28;20041;-74
2023/08/11 01:41:13;;;;;;;2.78;2.03;;;;;;;23.05;41.78;98993.53;5037943;28;20045;-74
2023/08/11 01:43:39;;;;;;;2.70;1.95;;;;;;;23.03;41.82;99002.75;5054366;28;20503;-74
2023/08/11 01:46:04;;;;;;;3.33;2.20;;;;;;;22.98;41.56;98992.66;5037740;28;20033;-74
2023/08/11 01:48:30;;;;;;;2.95;2.10;;;;;;;23.01;41.57;99002.94;5021280;28;20036;-74
2023/08/11 01:50:55;;;;;;;2.85;1.98;;;;;;;22.95;41.72;99004.50;5021271;28;20488;-74
2023/08/11 01:53:21;;;;;;;3.15;1.98;;;;;;;22.92;41.85;99006.72;5037713;28;20087;-74
2023/08/11 01:55:46;;;;;;;2.97;1.52;;;;;;;22.91;41.82;99005.91;5037390;28;20075;-74
2023/08/11 01:58:12;;;;;;;2.53;1.67;;;;;;;22.89;42.01;99007.94;5037560;28;20037;-74
2023/08/11 02:00:37;;;;;;;4.70;1.55;;;;;;;22.87;41.93;99009.97;5020685;28;20080;-74
2023/08/11 02:03:03;;;;;;;1.90;1.40;;;;;;;22.80;41.87;99002.94;5037151;28;20381;-74
2023/08/11 02:05:29;;;;;;;2.30;1.40;;;;;;;22.85;42.23;99014.66;5037652;28;20040;-73
2023/08/11 02:07:55;;;;;;;2.17;1.45;;;;;;;22.86;42.07;99005.63;5037925;28;20037;-74
2023/08/11 02:10:20;;;;;;;3.20;1.60;;;;;;;22.83;41.88;99000.69;5037439;28;20033;-73
2023/08/11 02:12:46;;;;;;;2.38;1.25;;;;;;;22.81;42.05;99010.72;5037365;28;20033;-74
2023/08/11 02:15:11;;;;;;;2.28;1.40;;;;;;;22.77;42.00;99007.63;5020509;28;20045;-74
2023/08/11 02:17:37;;;;;;;2.53;1.60;;;;;;;22.81;42.18;99007.25;5020881;28;20091;-74
2023/08/11 02:20:13;;;;;;;2.30;1.70;;;;;;;22.75;42.25;99004.31;5037355;28;20044;-73
2023/08/11 02:22:39;;;;;;;2.65;1.42;;;;;;;22.74;42.29;99010.66;5021338;28;20466;-74
2023/08/11 02:25:05;;;;;;;3.35;1.40;;;;;;;22.72;42.17;99007.38;5037109;28;20102;-74
2023/08/11 02:27:30;;;;;;;1.98;1.23;;;;;;;22.71;42.31;99011.03;5054732;28;20084;-74
2023/08/11 02:29:56;;;;;;;2.75;1.70;;;;;;;22.69;42.47;99006.91;5036647;28;20067;-73
2023/08/11 02:32:21;;;;;;;2.22;1.42;;;;;;;22.65;42.40;99005.66;5036771;28;20466;-74
2023/08/11 02:34:47;;;;;;;3.85;1.45;;;;;;;22.67;42.58;99012.41;5036934;28;20447;-73
2023/08/11 02:37:12;;;;;;;2.92;1.55;;;;;;;22.62;42.67;99003.38;5037176;28;20123;-74
2023/08/11 02:39:38;;;;;;;1.48;1.00;;;;;;;22.59;42.42;99007.22;5036998;28;20443;-74
2023/08/11 02:42:03;;;;;;;2.55;1.38;;;;;;;22.59;42.45;99008.03;5036419;28;20737;-74
2023/08/11 02:44:29;;;;;;;3.50;1.20;;;;;;;22.54;42.55;99015.75;5036663;28;20069;-74
2023/08/11 02:46:54;;;;;;;1.60;1.20;;;;;;;22.54;42.61;99017.59;5036527;28;20029;-74
2023/08/11 02:49:20;;;;;;;3.95;1.20;;;;;;;22.49;42.60;99006.72;5036854;28;20073;-74
2023/08/11 02:51:45;;;;;;;2.13;1.20;;;;;;;22.50;42.71;99016.31;5035154;28;20045;-75
2023/08/11 02:54:11;;;;;;;1.67;1.30;;;;;;;22.48;42.75;99013.03;5036646;28;20041;-73
2023/08/11 02:56:36;;;;;;;1.83;1.17;;;;;;;22.45;42.80;99014.22;5036560;28;20488;-72
2023/08/11 02:59:02;;;;;;;2.47;1.30;;;;;;;22.43;42.89;99018.91;5035623;28;20072;-73
2023/08/11 03:01:28;;;;;;;3.97;1.45;;;;;;;22.40;43.07;99011.31;5052725;28;20056;-73
2023/08/11 03:03:56;;;;;;;2.53;1.15;;;;;;;22.43;43.92;99026.06;5052731;28;20084;-74
2023/08/11 03:06:21;;;;;;;2.72;1.48;;;;;;;22.67;44.03;99024.91;5036426;28;20037;-71
2023/08/11 03:08:47;;;;;;;4.60;1.45;;;;;;;22.82;43.73;99025.69;5035935;28;20095;-76
2023/08/11 03:11:12;;;;;;;2.00;1.27;;;;;;;22.88;43.25;99019.59;5052708;28;20029;-71
2023/08/11 03:13:38;;;;;;;2.35;1.55;;;;;;;22.79;42.54;99019.91;5020021;28;20048;-74
2023/08/11 03:16:03;;;;;;;2.30;1.23;;;;;;;22.55;42.86;99020.06;5036384;28;20062;-72
2023/08/11 03:18:29;;;;;;;5.38;1.50;;;;;;;22.41;43.45;99023.59;5035967;28;20036;-72
2023/08/11 03:20:54;;;;;;;12.18;1.88;;;;;;;22.28;45.04;99024.22;5053734;28;20044;-75
2023/08/11 03:23:20;;;;;;;6.00;1.50;;;;;;;22.12;44.95;99025.22;5053775;28;20442;-71
2023/08/11 03:25:45;;;;;;;2.78;1.40;;;;;;;22.03;44.72;99021.88;5053921;28;20043;-73
2023/08/11 03:28:11;;;;;;;3.47;1.63;;;;;;;21.96;44.54;99012.16;5035834;28;20037;-75
2023/08/11 03:30:36;;;;;;;3.80;1.60;;;;;;;21.90;45.41;99020.84;5035678;28;20029;-74
2023/08/11 03:33:03;;;;;;;2.20;1.45;;;;;;;21.89;44.80;99022.69;5034566;28;20037;-72
2023/08/11 03:35:29;;;;;;;3.03;1.40;;;;;;;21.75;45.26;99027.00;5050000;28;20036;-72
2023/08/11 03:37:54;;;;;;;5.05;1.60;;;;;;;21.69;45.25;99017.91;5051446;28;20056;-74
2023/08/11 03:40:20;;;;;;;3.28;1.30;;;;;;;21.70;45.55;99018.75;5031987;28;20045;-73
2023/08/11 03:42:45;;;;;;;2.70;1.35;;;;;;;21.75;45.07;99024.34;5031230;28;20121;-72
2023/08/11 03:45:12;;;;;;;2.25;1.50;;;;;;;21.82;45.67;99024.41;5015317;28;20404;-72
2023/08/11 03:47:41;;;;;;;2.63;1.48;;;;;;;21.88;45.34;99025.53;5033679;28;20029;-71
2023/08/11 03:50:07;;;;;;;10.63;1.90;;;;;;;22.07;44.56;99022.31;4999280;28;20061;-72
2023/08/11 03:52:33;;;;;;;5.78;1.50;;;;;;;23.04;42.30;99012.34;4999239;28;20041;-73
2023/08/11 03:54:59;;;;;;;3.15;1.67;;;;;;;24.01;40.43;99018.84;5015641;28;20061;-72
2023/08/11 03:57:25;;;;;;;9.38;1.75;;;;;;;24.60;38.89;99008.66;4998906;28;20072;-72
2023/08/11 03:59:51;;;;;;;9.60;2.15;;;;;;;25.07;37.62;99010.34;4998831;28;20041;-72
2023/08/11 04:02:17;;;;;;;5.50;1.60;;;;;;;25.89;36.18;99009.28;5034917;28;20055;-73
2023/08/11 04:04:43;;;;;;;3.67;1.60;;;;;;;26.94;35.93;99016.25;5038329;28;20056;-71
2023/08/11 04:07:09;;;;;;;5.05;1.38;;;;;;;28.13;33.91;99010.84;5034676;28;20064;-69
2023/08/11 04:09:34;;;;;;;3.78;1.55;;;;;;;29.03;31.17;99020.81;5017732;28;20495;-68
2023/08/11 04:12:00;;;;;;;6.15;1.40;;;;;;;29.80;30.04;99023.72;5034726;28;20044;-69
2023/08/11 04:14:25;;;;;;;5.70;1.63;;;;;;;30.50;29.13;99030.81;5034374;28;20487;-69
2023/08/11 04:16:51;;;;;;;4.13;1.40;;;;;;;31.12;28.05;99027.38;5002101;28;20079;-69
2023/08/11 04:19:16;;;;;;;7.22;1.50;;;;;;;31.73;27.60;99034.75;5018096;28;20075;-70
2023/08/11 04:21:42;;;;;;;2.28;1.20;;;;;;;32.33;26.40;99029.63;5001923;28;20075;-69
2023/08/11 04:24:07;;;;;;;3.38;1.00;;;;;;;32.95;25.53;99026.47;5018485;28;20041;-69
2023/08/11 04:26:34;;;;;;;8.05;1.30;;;;;;;33.58;24.84;99027.78;5001048;28;20480;-69
2023/08/11 04:29:01;;;;;;;2.00;1.10;;;;;;;33.52;24.58;99035.03;5018794;28;20037;-71
2023/08/11 04:31:27;;;;;;;2.55;1.15;;;;;;;32.19;26.10;99027.28;5035135;28;20041;-70
2023/08/11 04:33:53;;;;;;;4.85;1.10;;;;;;;32.08;26.61;99028.19;5034979;28;20039;-70
2023/08/11 04:36:19;;;;;;;2.70;0.85;;;;;;;33.25;25.15;99035.13;5034712;28;20041;-70
2023/08/11 04:38:44;;;;;;;2.20;1.25;;;;;;;34.28;23.25;99039.28;5017782;28;20049;-69
2023/08/11 04:41:10;;;;;;;5.03;1.23;;;;;;;35.05;22.53;99034.00;5001463;28;20041;-69
2023/08/11 04:43:36;;;;;;;2.20;1.10;;;;;;;35.79;21.56;99031.78;5034236;28;20040;-70
2023/08/11 04:46:01;;;;;;;1.83;0.80;;;;;;;36.50;21.09;99023.59;5017665;28;20558;-69
2023/08/11 04:48:27;;;;;;;2.00;0.95;;;;;;;37.22;20.34;99029.38;5001574;28;20032;-69
2023/08/11 04:50:52;;;;;;;5.15;1.00;;;;;;;37.85;19.34;99041.31;5016879;28;20045;-69
2023/08/11 04:53:18;;;;;;;3.65;0.85;;;;;;;38.45;18.68;99043.56;5051865;28;20108;-69
2023/08/11 04:55:44;;;;;;;4.03;1.17;;;;;;;38.93;18.43;99036.31;5017815;28;20440;-68
2023/08/11 04:58:09;;;;;;;3.75;1.10;;;;;;;39.41;17.56;99044.25;5034458;28;20407;-69
2023/08/11 05:00:36;;;;;;;6.53;1.00;;;;;;;39.86;17.33;99039.06;5036103;28;20476;-69
2023/08/11 05:03:02;;;;;;;4.00;0.90;;;;;;;40.37;16.60;99041.84;5017632;28;20084;-69
2023/08/11 05:05:28;;;;;;;3.73;0.90;;;;;;;40.85;16.16;99038.63;5018203;28;20056;-68
2023/08/11 05:07:54;;;;;;;2.08;0.73;;;;;;;41.29;15.58;99042.44;5001490;28;20068;-69
2023/08/11 05:10:19;;;;;;;3.22;0.90;;;;;;;41.59;15.69;99035.34;5034228;28;20098;-69
2023/08/11 05:12:45;;;;;;;1.75;0.90;;;;;;;41.99;15.45;99033.72;5001463;28;20037;-69
2023/08/11 05:15:11;;;;;;;1.40;0.90;;;;;;;42.37;14.67;99041.38;5034290;28;20132;-69
2023/08/11 05:17:37;;;;;;;3.43;0.80;;;;;;;42.70;14.47;99029.97;5018326;28;20072;-69
2023/08/11 05:20:06;;;;;;;3.17;1.23;;;;;;;42.91;14.18;99041.88;5017933;28;20052;-68
2023/08/11 05:22:32;;;;;;;1.70;1.00;;;;;;;43.14;13.88;99030.72;5034825;28;20413;-70
2023/08/11 05:24:57;;;;;;;1.97;0.90;;;;;;;43.42;13.90;99036.63;5001359;28;20039;-70
2023/08/11 05:27:23;;;;;;;1.43;0.93;;;;;;;43.62;13.81;99035.13;5034302;28;20029;-69
2023/08/11 05:29:49;;;;;;;6.10;0.83;;;;;;;43.80;13.82;99040.56;5000714;28;20036;-69
2023/08/11 05:32:15;;;;;;;4.00;0.90;;;;;;;43.98;13.61;99041.25;5034063;28;20040;-68
2023/08/11 05:34:40;;;;;;;3.83;0.80;;;;;;;44.12;13.23;99039.03;5017571;28;20037;-69
2023/08/11 05:37:06;;;;;;;3.70;0.87;;;;;;;44.30;13.20;99047.22;5051469;28;20442;-68
2023/08/11 05:39:32;;;;;;;3.67;1.00;;;;;;;44.40;12.96;99052.31;5034085;28;20056;-68
2023/08/11 05:41:58;;;;;;;2.60;0.80;;;;;;;44.44;12.87;99047.78;5033953;28;20041;-70
2023/08/11 05:44:24;;;;;;;3.00;0.70;;;;;;;44.57;13.16;99057.69;5050597;28;20033;-68
2023/08/11 05:46:49;;;;;;;3.47;0.80;;;;;;;44.68;12.99;99055.38;5033972;28;20146;-68
2023/08/11 05:49:15;;;;;;;2.07;1.27;;;;;;;44.76;12.69;99067.44;5000623;28;20115;-69
2023/08/11 05:51:40;;;;;;;2.10;0.93;;;;;;;44.73;12.74;99057.91;5017294;28;20044;-69
2023/08/11 05:54:06;;;;;;;1.30;0.70;;;;;;;44.86;13.03;99066.22;5033803;28;20040;-69
2023/08/11 05:56:31;;;;;;;1.10;0.70;;;;;;;44.79;13.10;99064.00;5033973;28;20041;-69
2023/08/11 05:58:57;;;;;;;3.17;0.80;;;;;;;44.70;12.94;99071.53;5037704;28;20043;-68
2023/08/11 06:01:22;;;;;;;1.70;0.70;;;;;;;44.70;13.21;99068.78;5017422;28;20045;-69
2023/08/11 06:03:48;;;;;;;1.80;0.70;;;;;;;44.66;12.77;99063.13;4984855;28;20037;-69
2023/08/11 06:06:13;;;;;;;1.90;0.93;;;;;;;44.74;13.20;99064.19;5035114;28;20045;-71
2023/08/11 06:08:39;;;;;;;1.37;0.73;;;;;;;44.79;13.04;99069.53;5017279;28;20038;-68
2023/08/11 06:11:04;;;;;;;1.77;0.70;;;;;;;44.77;12.99;99069.84;5000859;28;20038;-68
2023/08/11 06:13:30;;;;;;;1.73;0.80;;;;;;;44.83;13.03;99072.41;4984793;28;20099;-68
2023/08/11 06:15:55;;;;;;;2.10;0.67;;;;;;;44.83;12.94;99069.66;5017663;28;20044;-69
2023/08/11 06:18:21;;;;;;;1.10;0.57;;;;;;;44.71;12.75;99073.13;5017281;28;20116;-68
2023/08/11 06:20:47;;;;;;;2.00;0.70;;;;;;;44.76;12.79;99068.25;5034909;28;20045;-69
2023/08/11 06:23:12;;;;;;;1.08;0.70;;;;;;;44.84;12.94;99072.06;5001087;28;20037;-68
2023/08/11 06:25:38;;;;;;;2.03;0.70;;;;;;;44.65;13.15;99075.31;5016708;28;20079;-69
2023/08/11 06:28:03;;;;;;;1.77;0.77;;;;;;;44.87;12.68;99076.09;5000306;28;20037;-69
2023/08/11 06:30:30;;;;;;;1.83;0.70;;;;;;;44.86;13.25;99068.97;5017217;28;20138;-69
2023/08/11 06:32:56;;;;;;;4.28;0.80;;;;;;;44.91;12.86;99069.53;4985045;28;20037;-69
2023/08/11 06:35:22;;;;;;;3.33;0.70;;;;;;;44.94;12.56;99068.88;4984150;28;20567;-69
2023/08/11 06:37:47;;;;;;;1.20;0.80;;;;;;;43.29;13.84;99056.88;5000763;28;20040;-69
2023/08/11 06:40:13;;;;;;;2.57;0.70;;;;;;;41.73;15.02;99068.13;5000755;28;20268;-68
2023/08/11 06:42:39;;;;;;;1.37;0.60;;;;;;;40.48;16.46;99068.69;5000904;28;20127;-70
2023/08/11 06:45:05;;;;;;;3.47;0.90;;;;;;;39.64;17.14;99077.22;5000561;28;20067;-68
2023/08/11 06:47:31;;;;;;;2.00;0.90;;;;;;;39.67;17.12;99074.69;5016733;28;20030;-68
2023/08/11 06:49:57;;;;;;;2.08;0.80;;;;;;;40.41;16.28;99071.06;5034505;28;20064;-69
2023/08/11 06:52:23;;;;;;;2.70;0.80;;;;;;;40.86;15.85;99076.63;5017363;28;20099;-69
2023/08/11 06:54:48;;;;;;;4.00;0.75;;;;;;;41.19;15.63;99068.13;5016920;28;20037;-69
2023/08/11 06:57:14;;;;;;;3.63;0.90;;;;;;;41.49;15.69;99073.97;5034269;28;20053;-69
2023/08/11 06:59:39;;;;;;;1.80;0.68;;;;;;;41.72;15.61;99068.44;5016871;28;20045;-69
2023/08/11 07:02:05;;;;;;;4.85;1.00;;;;;;;41.98;15.42;99075.97;5013715;28;20054;-69
2023/08/11 07:04:31;;;;;;;2.78;0.80;;;;;;;42.16;15.19;99076.84;5033123;28;20037;-68
2023/08/11 07:06:56;;;;;;;3.50;0.80;;;;;;;42.32;14.85;99072.53;5016573;28;20042;-69
2023/08/11 07:09:22;;;;;;;2.00;0.80;;;;;;;42.46;14.72;99073.19;5016292;28;20480;-69
2023/08/11 07:11:47;;;;;;;4.53;0.93;;;;;;;42.55;14.80;99069.66;4999833;28;20519;-69
2023/08/11 07:14:13;;;;;;;3.13;0.90;;;;;;;42.68;14.61;99067.91;5000171;28;20041;-69
2023/08/11 07:16:38;;;;;;;3.70;0.83;;;;;;;42.79;14.49;99075.47;5033969;28;20410;-69
2023/08/11 07:19:04;;;;;;;3.17;0.80;;;;;;;42.86;14.37;99072.25;4999397;28;20088;-70
2023/08/11 07:21:29;;;;;;;2.40;1.00;;;;;;;42.89;14.08;99077.09;5000006;28;20440;-69
2023/08/11 07:23:55;;;;;;;2.17;1.00;;;;;;;42.94;14.32;99082.41;5016073;28;20099;-69
2023/08/11 07:26:20;;;;;;;2.40;1.00;;;;;;;42.97;14.05;99076.31;5033884;28;20048;-69
2023/08/11 07:28:46;;;;;;;1.57;0.90;;;;;;;43.00;14.17;99083.06;4999865;28;20044;-69
2023/08/11 07:31:12;;;;;;;3.37;0.90;;;;;;;43.03;14.00;99096.16;4999776;28;20071;-70
2023/08/11 07:33:39;;;;;;;4.93;0.93;;;;;;;43.06;14.04;99095.50;4999780;28;20033;-70
2023/08/11 07:36:05;;;;;;;1.95;0.80;;;;;;;43.14;13.96;99102.13;5033458;28;20100;-69
2023/08/11 07:38:31;;;;;;;1.93;0.90;;;;;;;43.13;13.80;99100.53;5015680;28;20140;-69
2023/08/11 07:40:56;;;;;;;3.53;1.03;;;;;;;43.08;13.88;99108.91;4999481;28;20037;-70
2023/08/11 07:43:21;;;;;;;2.77;0.80;;;;;;;43.14;13.87;99102.13;5033573;28;20037;-69
2023/08/11 07:45:47;;;;;;;2.00;0.83;;;;;;;43.12;13.91;99096.97;5015728;28;20091;-70
2023/08/11 07:48:13;;;;;;;2.33;0.77;;;;;;;43.15;13.78;99098.25;4998851;28;20125;-69
2023/08/11 07:50:38;;;;;;;1.60;0.90;;;;;;;43.11;13.82;99097.28;5015701;28;20084;-68
2023/08/11 07:53:04;;;;;;;3.33;1.00;;;;;;;43.14;13.71;99091.13;4998412;28;20232;-69
2023/08/11 07:55:29;;;;;;;1.80;0.80;;;;;;;43.17;14.09;99093.22;4982966;28;20036;-69
2023/08/11 07:57:55;;;;;;;1.90;1.07;;;;;;;43.16;13.90;99099.88;4998614;28;20041;-69
2023/08/11 08:00:24;;;;;;;2.07;1.00;;;;;;;43.18;14.03;99092.09;5018516;28;20041;-69
2023/08/11 08:02:53;;;;;;;2.25;1.00;;;;;;;43.19;14.00;99096.44;5053100;28;20405;-69
2023/08/11 08:05:19;;;;;;;3.22;1.00;;;;;;;43.17;13.86;99095.97;5018612;28;20041;-70
2023/08/11 08:07:45;;;;;;;3.00;1.20;;;;;;;43.16;14.18;99097.94;5019045;28;20049;-68
2023/08/11 08:10:11;;;;;;;3.13;1.23;;;;;;;43.17;13.79;99095.97;5002404;28;20040;-69
2023/08/11 08:12:37;;;;;;;2.75;1.02;;;;;;;43.13;14.26;99095.03;5019130;28;20478;-69
2023/08/11 08:15:04;;;;;;;2.60;0.80;;;;;;;43.13;13.96;99095.84;5018414;28;20040;-69
2023/08/11 08:17:31;;;;;;;2.85;1.00;;;;;;;43.11;14.39;99094.53;5034528;28;20036;-69
2023/08/11 08:19:57;;;;;;;3.08;1.00;;;;;;;43.10;14.20;99090.19;5018900;28;20048;-69
2023/08/11 08:22:22;;;;;;;4.80;1.10;;;;;;;42.99;14.24;99085.03;5034991;28;20064;-69
2023/08/11 08:24:48;;;;;;;7.43;1.37;;;;;;;42.98;14.17;99099.06;5018539;28;20037;-69
2023/08/11 08:27:15;;;;;;;4.77;1.10;;;;;;;42.95;13.93;99092.28;5018724;28;20037;-68
2023/08/11 08:29:40;;;;;;;;;;;;;;;42.79;13.67;99089.19;5019162;28;20029;-69
2023/08/11 08:32:06;;;;;;;2.73;1.00;;;;;;;42.64;13.82;99087.75;5052583;28;19913;-70
2023/08/11 08:34:31;;;;;;;3.13;1.30;;;;;;;42.55;13.85;99086.94;5001610;28;20451;-69
2023/08/11 08:36:57;;;;;;;4.57;1.33;;;;;;;42.52;14.16;99090.28;5001715;28;20052;-70
2023/08/11 08:39:22;;;;;;;2.30;0.80;;;;;;;42.40;14.07;99088.19;5035016;28;20040;-69
2023/08/11 08:41:48;;;;;;;3.20;1.00;;;;;;;42.26;13.97;99088.34;5034709;28;20112;-68
2023/08/11 08:44:13;;;;;;;3.67;1.20;;;;;;;42.26;14.13;99102.03;5017996;28;20037;-70
2023/08/11 08:46:39;;;;;;;3.13;1.30;;;;;;;42.04;14.50;99091.97;5018114;28;20579;-69
2023/08/11 08:49:16;;;;;;;2.77;1.30;;;;;;;41.99;14.45;99086.63;5017364;28;20044;-69
2023/08/11 08:51:42;;;;;;;5.53;2.65;;;;;;;41.94;14.63;99092.22;5052621;28;20068;-69
2023/08/11 08:54:10;;;;;;;1.40;1.10;;;;;;;41.64;14.37;99077.41;5018127;28;20518;-70
2023/08/11 08:56:37;;;;;;;4.78;1.67;;;;;;;41.73;14.63;99089.25;5018832;28;20033;-69
2023/08/11 08:59:02;;;;;;;3.38;1.10;;;;;;;41.48;14.52;99090.72;5001193;28;20041;-70
2023/08/11 09:01:28;;;;;;;6.63;2.00;;;;;;;41.43;14.72;99080.72;5017679;28;20060;-71
2023/08/11 09:03:54;;;;;;;5.77;4.57;;;;;;;41.27;15.30;99087.69;5018472;28;20032;-69
2023/08/11 09:06:20;;;;;;;2.80;2.03;;;;;;;41.24;15.26;99086.38;5034575;28;20036;-69
2023/08/11 09:08:46;;;;;;;4.63;3.35;;;;;;;41.21;15.42;99068.66;5001451;28;20037;-69
2023/08/11 09:11:12;;;;;;;3.10;2.40;;;;;;;41.07;15.15;99067.91;5001017;28;20036;-69
2023/08/11 09:13:38;;;;;;;3.70;2.00;;;;;;;40.85;15.57;99079.69;5017681;28;20037;-70
2023/08/11 09:16:03;;;;;;;3.47;2.67;;;;;;;40.78;15.79;99082.78;5034332;28;20045;-70
2023/08/11 09:18:29;;;;;;;3.13;1.70;;;;;;;40.74;15.58;99094.66;5017638;28;20048;-68
2023/08/11 09:20:54;;;;;;;4.80;1.55;;;;;;;40.52;15.30;99088.06;5017574;28;20033;-69
2023/08/11 09:23:20;;;;;;;5.45;1.98;;;;;;;40.50;15.36;99091.09;5034077;28;20037;-70
2023/08/11 09:25:49;;;;;;;5.68;1.75;;;;;;;40.40;15.17;99095.94;5017932;28;20073;-69
2023/08/11 09:28:14;;;;;;;5.20;1.50;;;;;;;40.09;15.15;99078.25;5002321;28;20580;-69
2023/08/11 09:30:41;;;;;;;4.47;1.80;;;;;;;39.98;15.15;99077.66;5017565;28;20121;-68
2023/08/11 09:33:07;;;;;;;6.38;1.90;;;;;;;39.60;15.49;99077.81;5021066;28;20037;-69
2023/08/11 09:35:33;;;;;;;3.43;2.40;;;;;;;39.51;15.77;99081.50;5021977;28;20041;-70
2023/08/11 09:37:59;;;;;;;5.50;2.20;;;;;;;39.49;15.89;99079.09;5037881;28;20037;-68
2023/08/11 09:40:24;;;;;;;4.22;2.75;;;;;;;39.43;16.05;99081.09;5021401;28;20049;-70
2023/08/11 09:42:53;;;;;;;2.88;2.47;;;;;;;39.34;16.27;99080.16;5004681;28;20029;-69
2023/08/11 09:45:19;;;;;;;6.47;2.97;;;;;;;39.23;16.34;99071.31;5004138;28;20474;-69
2023/08/11 09:47:45;;;;;;;4.60;2.50;;;;;;;38.81;16.78;99083.16;5004108;28;20033;-69
2023/08/11 09:50:11;;;;;;;7.45;4.13;;;;;;;38.87;16.78;99071.06;5005230;28;20411;-69
2023/08/11 09:52:37;;;;;;;6.07;4.75;;;;;;;38.86;17.06;99072.19;5037773;28;20036;-69
2023/08/11 09:55:06;;;;;;;3.08;2.38;;;;;;;38.80;16.49;99065.97;5004745;28;20423;-67
2023/08/11 09:57:33;;;;;;;6.20;2.55;;;;;;;38.68;17.02;99079.25;5005856;28;20029;-70
2023/08/11 09:59:58;;;;;;;9.82;2.13;;;;;;;38.70;16.36;99079.78;5020635;28;20110;-70
2023/08/11 10:02:25;;;;;;;4.93;1.60;;;;;;;38.65;16.35;99074.38;5002556;28;20539;-70
2023/08/11 10:04:58;;;;;;;4.38;1.80;;;;;;;38.63;15.90;99066.50;5000099;28;20063;-68
2023/08/11 10:07:29;;;;;;;6.57;1.80;;;;;;;38.55;16.11;99056.22;5017358;28;20412;-69
2023/08/11 10:09:54;;;;;;;5.03;1.70;;;;;;;38.16;16.61;99070.91;5023206;28;20049;-71
2023/08/11 10:12:20;;;;;;;2.50;1.70;;;;;;;37.90;16.94;99070.41;5019455;28;20096;-70
2023/08/11 10:14:45;;;;;;;3.20;2.00;;;;;;;37.89;17.11;99069.59;5015249;28;20492;-71
2023/08/11 10:17:11;;;;;;;7.40;1.70;;;;;;;37.82;18.12;99069.13;5015367;28;20257;-68
2023/08/11 10:19:36;;;;;;;4.32;1.60;;;;;;;37.62;18.06;99070.94;5031868;28;20037;-69
2023/08/11 10:22:02;;;;;;;5.93;1.67;;;;;;;37.48;18.05;99070.00;5015047;28;20045;-69
2023/08/11 10:24:27;;;;;;;4.25;1.58;;;;;;;37.36;18.54;99072.28;5015650;28;20037;-67
2023/08/11 10:26:53;;;;;;;5.38;1.25;;;;;;;37.22;18.78;99067.47;5016061;28;20075;-71
2023/08/11 10:29:18;;;;;;;5.53;1.48;;;;;;;36.88;18.95;99067.44;4999453;28;20049;-71
2023/08/11 10:31:56;;;;;;;2.95;1.40;;;;;;;36.96;18.92;99066.84;5032704;28;20095;-70
2023/08/11 10:34:23;;;;;;;2.17;0.98;;;;;;;37.01;19.05;99063.28;4999960;28;20126;-71
2023/08/11 10:36:49;;;;;;;2.72;1.30;;;;;;;37.05;18.76;99061.59;5031994;28;20049;-71
2023/08/11 10:39:17;;;;;;;4.75;1.20;;;;;;;37.04;18.36;99065.44;5032442;28;20040;-70
2023/08/11 10:41:45;;;;;;;4.85;1.00;;;;;;;36.97;18.37;99067.66;5016049;28;20489;-70
2023/08/11 10:44:11;;;;;;;3.67;1.02;;;;;;;36.97;18.37;99067.66;5031927;28;20053;-70
2023/08/11 10:46:36;;;;;;;2.83;1.00;;;;;;;36.85;18.20;99055.25;5031986;28;20042;-71
2023/08/11 10:49:07;;;;;;;1.55;0.98;;;;;;;36.89;18.14;99053.56;5032201;28;20073;-70
2023/08/11 10:51:37;;;;;;;4.60;1.00;;;;;;;36.82;18.35;99052.28;5015701;28;20037;-71
2023/08/11 10:54:11;;;;;;;1.60;0.85;;;;;;;36.72;18.62;99058.53;5031917;28;20038;-70
2023/08/11 10:56:41;;;;;;;2.80;1.10;;;;;;;36.48;18.83;99053.00;5032517;28;20168;-70
2023/08/11 10:59:16;;;;;;;1.75;0.90;;;;;;;36.31;19.15;99066.94;5015819;28;20485;-69
2023/08/11 11:01:43;;;;;;;3.30;1.00;;;;;;;36.04;19.64;99058.06;5029824;28;20063;-68
2023/08/11 11:04:09;;;;;;;6.55;1.10;;;;;;;36.01;19.98;99055.91;5019727;28;20478;-70
2023/08/11 11:06:35;;;;;;;2.88;0.88;;;;;;;35.99;19.81;99057.25;4999133;28;20482;-73
2023/08/11 11:09:04;;;;;;;3.13;1.08;;;;;;;35.93;19.98;99050.22;4999010;28;20037;-71
2023/08/11 11:11:32;;;;;;;2.40;0.98;;;;;;;35.78;20.35;99049.16;5015233;28;20091;-70
2023/08/11 11:13:58;;;;;;;2.17;1.00;;;;;;;35.68;20.43;99052.69;5015988;28;20053;-74
2023/08/11 11:16:24;;;;;;;2.45;1.17;;;;;;;35.65;20.23;99050.53;5047472;28;20181;-72
2023/08/11 11:18:50;;;;;;;3.78;0.98;;;;;;;35.73;20.21;99056.50;5041323;28;20094;-79
2023/08/11 11:21:18;;;;;;;2.00;1.00;;;;;;;35.73;19.86;99054.59;5019034;28;20121;-81
2023/08/11 11:23:46;;;;;;;;;;;;;;;35.60;19.66;99063.31;5052857;28;20037;-80
2023/08/11 11:26:22;;;;;;;1.30;0.80;;;;;;;35.49;20.01;99057.91;5035493;28;19908;-82
2023/08/11 11:28:48;;;;;;;2.22;0.93;;;;;;;35.47;20.12;99056.53;5052165;28;20526;-81